createdAt,value
2016-06-16T00:00:46.928Z,99.99
2016-06-16T00:01:46.947Z,99.99
2016-06-16T00:02:46.982Z,99.99
2016-06-16T00:03:47.000Z,99.99
2016-06-16T00:04:47.018Z,99.99
2016-06-16T00:05:47.036Z,99.99
2016-06-16T00:06:47.056Z,99.99
2016-06-16T00:07:47.090Z,99.99
2016-06-16T00:08:47.109Z,99.99
2016-06-16T00:09:47.143Z,99.99
2016-06-16T00:10:47.740Z,99.99
2016-06-16T00:11:47.180Z,99.99
2016-06-16T00:13:01.391Z,99.99
2016-06-16T00:13:47.234Z,99.99
2016-06-16T00:14:47.252Z,99.99
2016-06-16T00:15:47.271Z,99.99
2016-06-16T00:16:47.306Z,99.99
2016-06-16T00:17:47.324Z,99.99
2016-06-16T00:19:47.424Z,99.99
2016-06-16T00:20:47.396Z,99.99
2016-06-16T00:21:47.415Z,99.99
2016-06-16T00:22:47.433Z,99.99
2016-06-16T00:23:47.467Z,99.99
2016-06-16T00:25:47.864Z,99.99
2016-06-16T00:26:47.539Z,99.99
2016-06-16T00:28:01.748Z,99.99
2016-06-16T00:28:47.576Z,99.99
2016-06-16T00:29:47.610Z,99.99
2016-06-16T00:30:47.646Z,99.99
2016-06-16T00:31:47.649Z,99.99
2016-06-16T00:32:47.683Z,99.99
2016-06-16T00:33:47.701Z,99.99
2016-06-16T00:34:47.720Z,99.99
2016-06-16T00:35:47.754Z,99.99
2016-06-16T00:38:47.826Z,99.99
2016-06-16T00:39:47.845Z,99.99
2016-06-16T00:40:48.316Z,99.99
2016-06-16T00:41:47.883Z,99.99
2016-06-16T00:42:47.932Z,99.99
2016-06-16T00:43:47.935Z,99.99
2016-06-16T00:44:47.954Z,99.99
2016-06-16T00:45:47.989Z,99.99
2016-06-16T00:46:48.006Z,99.99
2016-06-16T00:47:48.026Z,99.99
2016-06-16T00:48:48.060Z,99.99
2016-06-16T00:49:48.079Z,99.99
2016-06-16T00:50:48.097Z,99.99
2016-06-16T00:52:48.150Z,99.99
2016-06-16T00:55:48.598Z,99.99
2016-06-16T00:56:48.240Z,99.99
2016-06-16T00:57:48.260Z,99.99
2016-06-16T00:58:48.279Z,99.99
2016-06-16T01:00:02.487Z,99.99
2016-06-16T01:00:48.330Z,99.99
2016-06-16T01:01:48.194Z,99.99
2016-06-16T01:02:48.384Z,99.99
2016-06-16T01:03:48.403Z,99.99
2016-06-16T01:04:48.422Z,99.99
2016-06-16T01:05:48.456Z,99.99
2016-06-16T01:06:48.474Z,99.99
2016-06-16T01:09:48.624Z,99.99
2016-06-16T01:10:48.566Z,99.99
2016-06-16T01:11:48.584Z,99.99
2016-06-16T01:12:48.462Z,99.99
2016-06-16T01:13:48.495Z,99.99
2016-06-16T01:14:48.499Z,99.99
2016-06-16T01:16:02.865Z,99.99
2016-06-16T01:16:48.709Z,99.99
2016-06-16T01:17:48.727Z,99.99
2016-06-16T01:18:48.808Z,99.99
2016-06-16T01:19:48.780Z,99.99
2016-06-16T01:20:48.800Z,99.99
2016-06-16T01:21:48.817Z,99.99
2016-06-16T01:22:48.852Z,99.99
2016-06-16T01:23:48.886Z,99.99
2016-06-16T01:24:48.889Z,99.99
2016-06-16T01:25:48.924Z,99.99
2016-06-16T01:26:48.943Z,99.99
2016-06-16T01:27:48.961Z,99.99
2016-06-16T01:28:48.995Z,99.99
2016-06-16T01:29:49.014Z,99.99
2016-06-16T01:30:49.033Z,99.99
2016-06-16T01:32:03.242Z,99.99
2016-06-16T01:32:48.929Z,99.99
2016-06-16T01:33:49.104Z,99.99
2016-06-16T01:34:49.123Z,99.99
2016-06-16T01:35:49.142Z,99.99
2016-06-16T01:36:49.176Z,99.99
2016-06-16T01:37:49.194Z,99.99
2016-06-16T01:38:49.230Z,99.99
2016-06-16T01:39:49.247Z,99.99
2016-06-16T01:40:49.266Z,99.99
2016-06-16T01:41:49.286Z,99.99
2016-06-16T01:42:49.320Z,99.99
2016-06-16T01:43:49.338Z,99.99
2016-06-16T01:44:49.357Z,99.99
2016-06-16T01:45:49.391Z,99.99
2016-06-16T01:46:49.410Z,99.99
2016-06-16T01:48:03.619Z,99.99
2016-06-16T01:48:49.447Z,99.99
2016-06-16T01:49:49.467Z,99.99
2016-06-16T01:50:49.500Z,99.99
2016-06-16T01:51:49.534Z,99.99
2016-06-16T01:52:49.554Z,99.99
2016-06-16T01:53:49.573Z,99.99
2016-06-16T01:54:49.590Z,99.99
2016-06-16T01:55:49.796Z,99.99
2016-06-16T01:56:49.644Z,99.99
2016-06-16T01:58:49.681Z,99.99
2016-06-16T01:59:49.700Z,99.99
2016-06-16T02:00:49.734Z,99.99
2016-06-16T02:01:49.753Z,99.99
2016-06-16T02:03:03.962Z,99.99
2016-06-16T02:03:49.806Z,99.99
2016-06-16T02:04:49.825Z,99.99
2016-06-16T02:05:49.859Z,99.99
2016-06-16T02:06:49.863Z,99.99
2016-06-16T02:07:49.896Z,99.99
2016-06-16T02:08:49.915Z,99.99
2016-06-16T02:09:49.934Z,99.99
2016-06-16T02:10:49.968Z,99.99
2016-06-16T02:12:50.021Z,99.99
2016-06-16T02:13:50.040Z,99.99
2016-06-16T02:14:50.058Z,99.99
2016-06-16T02:15:50.077Z,99.99
2016-06-16T02:16:50.112Z,99.99
2016-06-16T02:17:50.130Z,99.99
2016-06-16T02:18:50.149Z,99.99
2016-06-16T02:19:50.184Z,99.99
2016-06-16T02:20:50.202Z,99.99
2016-06-16T02:21:50.220Z,99.99
2016-06-16T02:22:50.240Z,99.99
2016-06-16T02:23:50.258Z,99.99
2016-06-16T02:24:50.136Z,99.99
2016-06-16T02:25:50.921Z,99.99
2016-06-16T02:26:50.345Z,99.99
2016-06-16T02:27:50.364Z,99.99
2016-06-16T02:28:50.384Z,99.99
2016-06-16T02:29:50.401Z,99.99
2016-06-16T02:30:50.420Z,99.99
2016-06-16T02:31:50.454Z,99.99
2016-06-16T02:32:50.474Z,99.99
2016-06-16T02:33:50.491Z,99.99
2016-06-16T02:35:04.702Z,99.99
2016-06-16T02:35:50.545Z,99.99
2016-06-16T02:36:50.564Z,99.99
2016-06-16T02:37:50.583Z,99.99
2016-06-16T02:38:50.617Z,99.99
2016-06-16T02:39:50.635Z,99.99
2016-06-16T02:40:51.060Z,99.99
2016-06-16T02:42:50.707Z,99.99
2016-06-16T02:43:50.726Z,99.99
2016-06-16T02:44:50.745Z,99.99
2016-06-16T02:45:50.779Z,99.99
2016-06-16T02:46:50.797Z,99.99
2016-06-16T02:47:50.816Z,99.99
2016-06-16T02:48:50.835Z,99.99
2016-06-16T02:49:50.870Z,99.99
2016-06-16T02:51:05.079Z,99.99
2016-06-16T02:51:50.907Z,99.99
2016-06-16T02:52:50.925Z,99.99
2016-06-16T02:53:50.960Z,99.99
2016-06-16T02:54:50.978Z,99.99
2016-06-16T02:55:50.998Z,99.99
2016-06-16T02:56:51.156Z,99.99
2016-06-16T02:57:50.894Z,99.99
2016-06-16T02:59:51.088Z,99.99
2016-06-16T03:00:50.966Z,99.99
2016-06-16T03:01:51.141Z,99.99
2016-06-16T03:02:51.160Z,99.99
2016-06-16T03:03:51.194Z,99.99
2016-06-16T03:04:51.212Z,99.99
2016-06-16T03:05:51.231Z,99.99
2016-06-16T03:07:05.441Z,99.99
2016-06-16T03:07:51.285Z,99.99
2016-06-16T03:08:51.303Z,99.99
2016-06-16T03:09:51.321Z,99.99
2016-06-16T03:10:51.355Z,99.99
2016-06-16T03:11:52.031Z,99.99
2016-06-16T03:12:51.394Z,99.99
2016-06-16T03:13:51.411Z,99.99
2016-06-16T03:14:51.446Z,99.99
2016-06-16T03:17:51.502Z,99.99
2016-06-16T03:18:51.537Z,99.99
2016-06-16T03:19:51.555Z,99.99
2016-06-16T03:20:51.574Z,99.99
2016-06-16T03:21:51.796Z,99.99
2016-06-16T03:23:05.802Z,99.99
2016-06-16T03:23:51.645Z,99.99
2016-06-16T03:24:51.665Z,99.99
2016-06-16T03:25:51.698Z,99.99
2016-06-16T03:26:51.717Z,99.99
2016-06-16T03:27:51.737Z,99.99
2016-06-16T03:28:51.755Z,99.99
2016-06-16T03:29:51.804Z,99.99
2016-06-16T03:30:51.824Z,99.99
2016-06-16T03:31:51.827Z,99.99
2016-06-16T03:33:51.880Z,99.99
2016-06-16T03:34:51.898Z,99.99
2016-06-16T03:35:51.917Z,99.99
2016-06-16T03:36:51.952Z,99.99
2016-06-16T03:38:06.160Z,99.99
2016-06-16T03:38:51.988Z,99.99
2016-06-16T03:39:52.007Z,99.99
2016-06-16T03:40:52.041Z,99.99
2016-06-16T03:41:52.076Z,99.99
2016-06-16T03:42:52.078Z,99.99
2016-06-16T03:43:52.113Z,99.99
2016-06-16T03:44:52.132Z,99.99
2016-06-16T03:45:52.150Z,99.99
2016-06-16T03:46:52.170Z,99.99
2016-06-16T03:47:52.204Z,99.99
2016-06-16T03:48:52.222Z,99.99
2016-06-16T03:49:52.241Z,99.99
2016-06-16T03:50:52.276Z,99.99
2016-06-16T03:51:52.294Z,99.99
2016-06-16T03:52:52.313Z,99.99
2016-06-16T03:53:52.331Z,99.99
2016-06-16T03:54:52.366Z,99.99
2016-06-16T03:55:52.384Z,99.99
2016-06-16T03:56:52.716Z,99.99
2016-06-16T03:57:52.438Z,99.99
2016-06-16T03:58:52.457Z,99.99
2016-06-16T03:59:52.475Z,99.99
2016-06-16T04:00:52.494Z,99.99
2016-06-16T04:01:52.512Z,99.99
2016-06-16T04:02:52.547Z,99.99
2016-06-16T04:03:52.566Z,99.99
2016-06-16T04:04:52.600Z,99.99
2016-06-16T04:05:52.618Z,99.99
2016-06-16T04:06:52.637Z,99.99
2016-06-16T04:07:52.656Z,99.99
2016-06-16T04:08:52.690Z,99.99
2016-06-16T04:10:06.900Z,99.99
2016-06-16T04:10:52.728Z,99.99
2016-06-16T04:11:52.887Z,99.99
2016-06-16T04:12:52.781Z,99.99
2016-06-16T04:13:52.798Z,99.99
2016-06-16T04:14:52.818Z,99.99
2016-06-16T04:15:52.852Z,99.99
2016-06-16T04:16:52.890Z,99.99
2016-06-16T04:17:52.964Z,99.63
2016-06-16T04:18:53.022Z,98.43
2016-06-16T04:21:53.202Z,97.62
2016-06-16T04:22:53.251Z,97.47
2016-06-16T04:23:53.283Z,93.48
2016-06-16T04:24:53.332Z,91.46
2016-06-16T04:26:07.566Z,92.18
2016-06-16T04:26:53.316Z,90.88
2016-06-16T04:27:53.433Z,90.59
2016-06-16T04:28:53.472Z,86.78
2016-06-16T04:29:53.496Z,85.63
2016-06-16T04:30:53.535Z,81.43
2016-06-16T04:31:53.558Z,82.24
2016-06-16T04:32:53.594Z,81.66
2016-06-16T04:34:53.651Z,78.94
2016-06-16T04:35:53.530Z,76.15
2016-06-16T04:36:53.722Z,71.84
2016-06-16T04:37:53.742Z,71.16
2016-06-16T04:38:53.777Z,69.65
2016-06-16T04:39:53.812Z,67.43
2016-06-16T04:40:53.848Z,65.88
2016-06-16T04:42:08.058Z,64.27
2016-06-16T04:42:53.902Z,62.92
2016-06-16T04:43:53.936Z,62.08
2016-06-16T04:44:53.971Z,60.66
2016-06-16T04:45:53.990Z,60.27
2016-06-16T04:47:54.058Z,58.95
2016-06-16T04:48:54.093Z,58.65
2016-06-16T04:49:54.127Z,57.14
2016-06-16T04:50:54.162Z,57.53
2016-06-16T04:51:54.196Z,56.75
2016-06-16T04:52:54.215Z,56.75
2016-06-16T04:53:54.249Z,54.74
2016-06-16T04:54:54.283Z,54.48
2016-06-16T04:55:54.318Z,53.99
2016-06-16T04:56:54.336Z,52.95
2016-06-16T04:58:08.561Z,53.61
2016-06-16T04:58:54.405Z,52.47
2016-06-16T04:59:54.439Z,52.59
2016-06-16T05:00:54.473Z,50.77
2016-06-16T05:02:54.542Z,50.94
2016-06-16T05:03:54.577Z,52.03
2016-06-16T05:04:54.596Z,48.75
2016-06-16T05:05:54.629Z,47.78
2016-06-16T05:06:54.664Z,48.95
2016-06-16T05:07:54.698Z,47.49
2016-06-16T05:08:54.733Z,46.74
2016-06-16T05:09:54.767Z,46.47
2016-06-16T05:10:54.801Z,46.37
2016-06-16T05:11:55.148Z,46.11
2016-06-16T05:13:09.061Z,45.42
2016-06-16T05:13:54.905Z,45.21
2016-06-16T05:14:54.939Z,45.6
2016-06-16T05:15:54.973Z,46.28
2016-06-16T05:16:55.007Z,44.74
2016-06-16T05:17:55.042Z,44.2
2016-06-16T05:18:55.076Z,44.3
2016-06-16T05:19:55.110Z,43.62
2016-06-16T05:20:54.988Z,43.89
2016-06-16T05:21:55.179Z,42.65
2016-06-16T05:22:55.213Z,42.28
2016-06-16T05:23:55.294Z,42.76
2016-06-16T05:24:55.282Z,43.43
2016-06-16T05:25:55.316Z,42.18
2016-06-16T05:26:55.382Z,40.81
2016-06-16T05:27:55.401Z,41.79
2016-06-16T05:28:55.420Z,39.96
2016-06-16T05:29:55.453Z,39.69
2016-06-16T05:30:55.487Z,38.53
2016-06-16T05:31:55.366Z,38.73
2016-06-16T05:32:56.932Z,38.63
2016-06-16T05:33:55.622Z,38.34
2016-06-16T05:34:55.625Z,37.09
2016-06-16T05:35:55.675Z,38.2
2016-06-16T05:36:55.694Z,37.32
2016-06-16T05:37:55.743Z,35.36
2016-06-16T05:38:55.778Z,35.56
2016-06-16T05:39:55.812Z,35.97
2016-06-16T05:40:55.846Z,36.54
2016-06-16T05:41:55.880Z,35.36
2016-06-16T05:42:55.916Z,36.44
2016-06-16T05:43:55.950Z,35.97
2016-06-16T05:45:10.175Z,35.5
2016-06-16T05:45:56.018Z,34.93
2016-06-16T05:46:56.068Z,33.67
2016-06-16T05:47:56.102Z,33.94
2016-06-16T05:48:56.137Z,33.74
2016-06-16T05:49:56.171Z,34.11
2016-06-16T05:50:56.205Z,35.3
2016-06-16T05:51:56.240Z,33.18
2016-06-16T05:52:56.274Z,32.61
2016-06-16T05:54:56.359Z,33.1
2016-06-16T05:55:56.393Z,31.93
2016-06-16T05:56:56.271Z,31.8
2016-06-16T05:57:56.477Z,32.87
2016-06-16T05:58:56.496Z,32.1
2016-06-16T05:59:56.545Z,31.44
2016-06-16T06:01:10.755Z,30.83
2016-06-16T06:01:56.614Z,31.8
2016-06-16T06:02:56.649Z,31.6
2016-06-16T06:03:56.683Z,31.8
2016-06-16T06:04:56.733Z,31.04
2016-06-16T06:05:56.751Z,31.34
2016-06-16T06:06:56.801Z,31.52
2016-06-16T06:07:56.852Z,31.73
2016-06-16T06:08:56.871Z,31.63
2016-06-16T06:09:56.921Z,30.87
2016-06-16T06:10:56.939Z,31.16
2016-06-16T06:11:57.286Z,32.04
2016-06-16T06:12:57.022Z,30.19
2016-06-16T06:13:57.057Z,30.68
2016-06-16T06:14:57.107Z,30.87
2016-06-16T06:15:57.142Z,30.39
2016-06-16T06:17:11.351Z,30.08
2016-06-16T06:17:57.210Z,29.41
2016-06-16T06:18:57.244Z,30.18
2016-06-16T06:19:57.280Z,29.79
2016-06-16T06:20:57.329Z,29.98
2016-06-16T06:21:57.364Z,29.31
2016-06-16T06:22:57.397Z,28.33
2016-06-16T06:23:57.432Z,28.92
2016-06-16T06:24:57.481Z,29.6
2016-06-16T06:25:57.516Z,29.21
2016-06-16T06:26:57.551Z,27.28
2016-06-16T06:27:57.601Z,29.33
2016-06-16T06:28:57.619Z,29.13
2016-06-16T06:29:57.669Z,28.55
2016-06-16T06:30:57.703Z,27.57
2016-06-16T06:31:57.738Z,27.59
2016-06-16T06:33:11.962Z,27.37
2016-06-16T06:33:57.822Z,27.77
2016-06-16T06:34:57.701Z,29.02
2016-06-16T06:35:57.891Z,29.41
2016-06-16T06:36:57.785Z,29.03
2016-06-16T06:37:57.974Z,28.82
2016-06-16T06:38:58.009Z,29.31
2016-06-16T06:39:58.044Z,27.95
2016-06-16T06:40:58.078Z,27.37
2016-06-16T06:41:58.128Z,26.79
2016-06-16T06:42:58.162Z,26.78
2016-06-16T06:43:58.196Z,27.85
2016-06-16T06:44:58.231Z,27.57
2016-06-16T06:45:58.281Z,27.49
2016-06-16T06:46:58.315Z,27.39
2016-06-16T06:48:12.541Z,27.57
2016-06-16T06:48:58.384Z,27.97
2016-06-16T06:49:58.419Z,27.08
2016-06-16T06:50:58.468Z,28.55
2016-06-16T06:51:58.502Z,27.87
2016-06-16T06:52:58.537Z,26.87
2016-06-16T06:53:58.586Z,28.83
2016-06-16T06:54:58.621Z,27.07
2016-06-16T06:55:58.655Z,28.89
2016-06-16T06:56:58.799Z,29.59
2016-06-16T06:57:58.724Z,29.79
2016-06-16T06:58:58.774Z,29.28
2016-06-16T06:59:58.808Z,27.56
2016-06-16T07:00:58.858Z,27.55
2016-06-16T07:01:58.892Z,28.54
2016-06-16T07:02:58.927Z,27.87
2016-06-16T07:03:58.977Z,28.75
2016-06-16T07:04:58.995Z,28.75
2016-06-16T07:05:59.045Z,28.54
2016-06-16T07:06:59.080Z,26.59
2016-06-16T07:07:59.114Z,26.7
2016-06-16T07:08:59.148Z,27.39
2016-06-16T07:09:59.198Z,27.69
2016-06-16T07:10:59.233Z,28.75
2016-06-16T07:11:59.767Z,27.77
2016-06-16T07:12:59.317Z,28.45
2016-06-16T07:13:59.351Z,25.92
2016-06-16T07:14:59.385Z,27.75
2016-06-16T07:16:59.455Z,27.47
2016-06-16T07:17:59.520Z,28.75
2016-06-16T07:18:59.538Z,26.89
2016-06-16T07:20:13.764Z,26.59
2016-06-16T07:20:59.607Z,26.62
2016-06-16T07:21:59.657Z,27.99
2016-06-16T07:22:59.691Z,26.52
2016-06-16T07:23:59.726Z,25.44
2016-06-16T07:25:59.794Z,26.4
2016-06-16T07:26:59.844Z,26.68
2016-06-16T07:27:59.878Z,27.26
2016-06-16T07:28:59.913Z,28.05
2016-06-16T07:30:59.997Z,27.95
2016-06-16T07:32:00.047Z,27.36
2016-06-16T07:33:00.081Z,27.74
2016-06-16T07:33:59.960Z,28.89
2016-06-16T07:48:37.552Z,29.16
2016-06-16T07:48:47.818Z,26.29
2016-06-16T07:49:47.852Z,25.81
2016-06-16T07:50:47.714Z,28.09
2016-06-16T07:51:47.936Z,27.61
2016-06-16T07:52:47.955Z,25.27
2016-06-16T07:53:48.005Z,26.54
2016-06-16T07:54:48.040Z,30.3
2016-06-16T07:55:48.074Z,29.7
2016-06-16T07:56:47.952Z,29.79
2016-06-16T07:57:48.142Z,30.26
2016-06-16T07:58:48.176Z,30.65
2016-06-16T08:00:48.261Z,29.7
2016-06-16T08:01:48.295Z,29.21
2016-06-16T08:02:48.329Z,28.43
2016-06-16T08:04:02.551Z,27.53
2016-06-16T08:04:48.414Z,26.97
2016-06-16T08:05:48.448Z,29.24
2016-06-16T08:06:48.483Z,28.47
2016-06-16T08:07:48.517Z,26.61
2016-06-16T08:08:48.567Z,26.7
2016-06-16T08:09:48.601Z,28.54
2016-06-16T08:10:48.636Z,29.1
2016-06-16T08:11:48.685Z,28.81
2016-06-16T08:12:48.720Z,30.46
2016-06-16T08:13:48.738Z,29.77
2016-06-16T08:14:48.631Z,30.07
2016-06-16T08:15:48.823Z,29.31
2016-06-16T08:16:48.857Z,30.85
2016-06-16T08:17:48.891Z,27.25
2016-06-16T08:18:48.942Z,28.83
2016-06-16T08:19:48.960Z,30.19
2016-06-16T08:20:49.009Z,29.31
2016-06-16T08:21:49.045Z,29.73
2016-06-16T08:22:49.094Z,26
2016-06-16T08:23:49.129Z,26.58
2016-06-16T08:24:49.162Z,28.03
2016-06-16T08:25:49.040Z,30.52
2016-06-16T08:26:49.074Z,30.93
2016-06-16T08:28:49.300Z,29.68
2016-06-16T08:29:49.334Z,31.04
2016-06-16T08:30:49.384Z,28.63
2016-06-16T08:31:49.418Z,28.74
2016-06-16T08:32:49.453Z,29.11
2016-06-16T08:33:49.487Z,29.79
2016-06-16T08:34:49.538Z,28.61
2016-06-16T08:36:03.744Z,30.75
2016-06-16T08:36:49.606Z,30.26
2016-06-16T08:37:49.640Z,28.51
2016-06-16T08:38:49.519Z,29.02
2016-06-16T08:39:49.725Z,29.7
2016-06-16T08:40:49.743Z,30.18
2016-06-16T08:42:49.828Z,29
2016-06-16T08:43:49.863Z,28.3
2016-06-16T08:44:49.897Z,29.98
2016-06-16T08:46:49.965Z,29.5
2016-06-16T08:47:49.999Z,27.83
2016-06-16T08:48:40.300Z,30.52
2016-06-16T08:49:40.318Z,29.64
2016-06-16T08:50:40.353Z,29.56
2016-06-16T08:51:40.387Z,29.55
2016-06-16T08:52:40.437Z,31.74
2016-06-16T08:53:40.456Z,35.31
2016-06-16T08:54:40.350Z,34.42
2016-06-16T08:55:40.368Z,35.2
2016-06-16T08:56:40.589Z,35.1
2016-06-16T08:57:54.781Z,34.24
2016-06-16T08:58:40.626Z,33.8
2016-06-16T08:59:40.662Z,32.16
2016-06-16T09:00:40.696Z,33.92
2016-06-16T09:01:40.746Z,31.59
2016-06-16T09:02:40.780Z,28.69
2016-06-16T09:03:40.814Z,28.31
2016-06-16T09:04:40.849Z,32.14
2016-06-16T09:05:40.868Z,28.71
2016-06-16T09:06:40.901Z,28.64
2016-06-16T09:07:40.951Z,29.91
2016-06-16T09:08:40.829Z,30.27
2016-06-16T09:09:41.021Z,26.27
2016-06-16T09:11:41.089Z,29.11
2016-06-16T09:12:41.123Z,29.11
2016-06-16T09:13:55.345Z,29.8
2016-06-16T09:14:41.192Z,27.95
2016-06-16T09:15:41.226Z,25.42
2016-06-16T09:16:41.261Z,26.81
2016-06-16T09:17:41.295Z,25.73
2016-06-16T09:18:41.329Z,26.73
2016-06-16T09:19:41.364Z,24.74
2016-06-16T09:20:41.398Z,25.83
2016-06-16T09:21:41.433Z,27.59
2016-06-16T09:22:41.575Z,25.42
2016-06-16T09:23:41.532Z,27.12
2016-06-16T09:24:41.536Z,29.64
2016-06-16T09:25:41.585Z,28.57
2016-06-16T09:26:41.620Z,26.72
2016-06-16T09:27:41.654Z,29.27
2016-06-16T09:28:41.688Z,28.2
2016-06-16T09:29:55.910Z,28.55
2016-06-16T09:30:41.757Z,26.2
2016-06-16T09:31:41.635Z,25.13
2016-06-16T09:32:41.825Z,25.39
2016-06-16T09:33:41.860Z,26.64
2016-06-16T09:34:41.894Z,25.28
2016-06-16T09:35:41.929Z,25.74
2016-06-16T09:36:41.963Z,27.77
2016-06-16T09:37:41.841Z,28.38
2016-06-16T09:38:42.031Z,28.67
2016-06-16T09:39:41.910Z,29.14
2016-06-16T09:40:42.100Z,28.96
2016-06-16T09:41:42.150Z,27.9
2016-06-16T09:42:42.044Z,28.3
2016-06-16T09:43:42.265Z,26.26
2016-06-16T09:44:56.425Z,24.91
2016-06-16T09:46:42.307Z,25.18
2016-06-16T09:47:42.184Z,28.68
2016-06-16T09:48:42.374Z,27.91
2016-06-16T09:49:42.409Z,25.49
2016-06-16T09:50:42.443Z,25.85
2016-06-16T09:51:42.494Z,26.62
2016-06-16T09:53:42.546Z,27.69
2016-06-16T09:54:42.580Z,26.71
2016-06-16T09:55:42.615Z,26.12
2016-06-16T09:56:42.649Z,25.95
2016-06-16T09:57:42.683Z,25.85
2016-06-16T10:00:42.786Z,27.52
2016-06-16T10:01:42.820Z,27.23
2016-06-16T10:02:42.840Z,26.15
2016-06-16T10:03:42.734Z,26.62
2016-06-16T10:04:42.909Z,25.34
2016-06-16T10:05:42.943Z,26.6
2016-06-16T10:06:43.102Z,27.95
2016-06-16T10:07:43.573Z,30.55
2016-06-16T10:08:43.046Z,29.69
2016-06-16T10:09:43.158Z,28.72
2016-06-16T10:10:43.145Z,29.8
2016-06-16T10:11:43.164Z,32.06
2016-06-16T10:12:43.183Z,28.94
2016-06-16T10:13:43.217Z,26.43
2016-06-16T10:14:43.252Z,27.19
2016-06-16T10:15:43.286Z,26.51
2016-06-16T10:16:57.507Z,28.45
2016-06-16T10:17:43.355Z,30.38
2016-06-16T10:18:43.388Z,27.16
2016-06-16T10:19:43.423Z,28.4
2016-06-16T10:20:43.458Z,30.54
2016-06-16T10:21:43.476Z,30.81
2016-06-16T10:22:43.510Z,32.35
2016-06-16T10:23:43.404Z,35.25
2016-06-16T10:25:43.629Z,32.6
2016-06-16T10:26:43.647Z,35.21
2016-06-16T10:27:43.683Z,33.09
2016-06-16T10:28:43.560Z,33.75
2016-06-16T10:29:43.751Z,35.61
2016-06-16T10:30:43.770Z,35.73
2016-06-16T10:31:43.820Z,31.38
2016-06-16T10:32:58.026Z,32.94
2016-06-16T10:33:43.873Z,35.47
2016-06-16T10:34:43.906Z,33.23
2016-06-16T10:35:43.941Z,34.01
2016-06-16T10:36:43.991Z,36.35
2016-06-16T10:37:43.994Z,35.69
2016-06-16T10:38:44.044Z,34.03
2016-06-16T10:39:44.078Z,33.62
2016-06-16T10:40:43.957Z,30.78
2016-06-16T10:41:44.131Z,32.53
2016-06-16T10:42:44.165Z,33.2
2016-06-16T10:43:44.199Z,36.2
2016-06-16T10:44:44.235Z,33.86
2016-06-16T10:45:44.269Z,36.79
2016-06-16T10:46:44.147Z,36
2016-06-16T10:47:44.337Z,35.71
2016-06-16T10:48:58.559Z,37.08
2016-06-16T10:49:44.390Z,37.19
2016-06-16T10:50:44.268Z,37.56
2016-06-16T10:51:44.459Z,35.42
2016-06-16T10:52:44.493Z,36.88
2016-06-16T10:53:44.527Z,36.3
2016-06-16T10:54:44.547Z,37.18
2016-06-16T10:55:44.596Z,35.71
2016-06-16T10:56:44.615Z,36.18
2016-06-16T10:57:44.665Z,35.7
2016-06-16T10:58:44.684Z,35.8
2016-06-16T10:59:44.561Z,37.26
2016-06-16T11:00:44.737Z,38.32
2016-06-16T11:02:44.665Z,37.18
2016-06-16T11:03:44.841Z,36.98
2016-06-16T11:07:47.540Z,32.87
2016-06-16T11:09:31.671Z,36.87
2016-06-16T11:10:47.643Z,36.28
2016-06-16T11:11:47.677Z,36.77
2016-06-16T11:13:31.808Z,35.42
2016-06-16T11:14:47.764Z,35.23
2016-06-16T11:16:01.971Z,34.63
2016-06-16T11:16:47.833Z,36.18
2016-06-16T11:17:47.867Z,36.26
2016-06-16T11:18:47.886Z,36.36
2016-06-16T11:19:47.920Z,34.33
2016-06-16T11:20:47.955Z,35.21
2016-06-16T11:21:47.990Z,35.6
2016-06-16T11:23:48.042Z,34.7
2016-06-16T11:24:48.077Z,35.99
2016-06-16T11:25:48.111Z,36.28
2016-06-16T11:27:48.179Z,31.53
2016-06-16T11:28:48.198Z,32.6
2016-06-16T11:29:48.232Z,32.7
2016-06-16T11:30:48.267Z,33.28
2016-06-16T11:31:48.145Z,34.16
2016-06-16T11:32:48.319Z,33.78
2016-06-16T11:33:48.355Z,32.71
2016-06-16T11:34:48.388Z,31.45
2016-06-16T11:35:48.423Z,32.32
2016-06-16T11:36:48.473Z,32.91
2016-06-16T11:37:48.475Z,32.91
2016-06-16T11:38:48.525Z,34.17
2016-06-16T11:39:48.545Z,33.98
2016-06-16T11:40:48.579Z,34.66
2016-06-16T11:41:48.629Z,34.95
2016-06-16T11:42:48.491Z,34.08
2016-06-16T11:43:48.697Z,32.82
2016-06-16T11:44:48.700Z,34.08
2016-06-16T11:45:48.594Z,33.12
2016-06-16T11:46:48.785Z,33.41
2016-06-16T11:48:02.990Z,31.95
2016-06-16T11:48:48.837Z,32.75
2016-06-16T11:49:48.856Z,32.53
2016-06-16T11:50:48.890Z,34.97
2016-06-16T11:51:48.925Z,31.85
2016-06-16T11:52:48.944Z,31.76
2016-06-16T11:53:48.994Z,32.62
2016-06-16T11:54:49.012Z,33.88
2016-06-16T11:55:49.047Z,33.22
2016-06-16T11:56:49.081Z,34.17
2016-06-16T11:57:48.959Z,32.73
2016-06-16T11:58:49.150Z,34.68
2016-06-16T11:59:49.185Z,32.63
2016-06-16T12:01:49.237Z,32.43
2016-06-16T12:02:49.272Z,34.09
2016-06-16T12:04:03.492Z,32.24
2016-06-16T12:04:49.340Z,33.88
2016-06-16T12:05:49.359Z,34.47
2016-06-16T12:06:49.393Z,33.7
2016-06-16T12:07:49.443Z,34.29
2016-06-16T12:08:49.305Z,34.08
2016-06-16T12:09:49.496Z,34.08
2016-06-16T12:10:49.514Z,35.15
2016-06-16T12:11:49.549Z,34.86
2016-06-16T12:12:49.427Z,35.75
2016-06-16T12:13:49.617Z,32.73
2016-06-16T12:14:49.652Z,32.63
2016-06-16T12:15:49.687Z,32.71
2016-06-16T12:16:49.704Z,31.54
2016-06-16T12:17:49.740Z,34.74
2016-06-16T12:18:49.774Z,33.77
2016-06-16T12:20:03.996Z,35.52
2016-06-16T12:20:49.670Z,35.33
2016-06-16T12:21:49.877Z,34.16
2016-06-16T12:22:49.895Z,34.08
2016-06-16T12:23:49.929Z,33.77
2016-06-16T12:24:49.965Z,35.52
2016-06-16T12:25:49.982Z,34.95
2016-06-16T12:26:50.017Z,32.24
2016-06-16T12:27:50.098Z,34.27
2016-06-16T12:28:50.086Z,35.42
2016-06-16T12:29:50.120Z,34.74
2016-06-16T12:30:50.155Z,34.64
2016-06-16T12:31:50.173Z,33.88
2016-06-16T12:33:50.242Z,34.86
2016-06-16T12:34:50.260Z,33.49
2016-06-16T12:36:04.482Z,34.95
2016-06-16T12:36:50.173Z,35.44
2016-06-16T12:37:50.208Z,32.32
2016-06-16T12:38:50.398Z,33.7
2016-06-16T12:39:50.432Z,33.98
2016-06-16T12:40:50.467Z,33.98
2016-06-16T12:41:50.484Z,35.03
2016-06-16T12:42:50.519Z,32.32
2016-06-16T12:43:50.554Z,34.56
2016-06-16T12:44:50.587Z,33.01
2016-06-16T12:45:50.622Z,34.27
2016-06-16T12:46:50.641Z,33.98
2016-06-16T12:47:50.675Z,33.59
2016-06-16T12:48:50.710Z,33.88
2016-06-16T12:49:50.744Z,33.51
2016-06-16T12:51:04.966Z,34.17
2016-06-16T12:51:50.798Z,31.06
2016-06-16T12:52:50.676Z,31.16
2016-06-16T12:59:06.240Z,33.48
2016-06-16T12:59:52.072Z,33.38
2016-06-16T13:00:52.106Z,34.06
2016-06-16T13:01:52.141Z,35.21
2016-06-16T13:02:52.160Z,32.97
2016-06-16T13:03:52.194Z,34.24
2016-06-16T13:04:52.072Z,35.21
2016-06-16T13:05:52.261Z,35.11
2016-06-16T13:06:52.281Z,32.79
2016-06-16T13:07:52.159Z,33.67
2016-06-16T13:09:06.537Z,32.31
2016-06-16T13:09:52.384Z,33.58
2016-06-16T13:10:52.403Z,34.84
2016-06-16T13:11:52.281Z,34.86
2016-06-16T13:12:52.472Z,32.52
2016-06-16T13:13:52.506Z,31.74
2016-06-16T13:14:52.384Z,32.89
2016-06-16T13:15:52.559Z,32.02
2016-06-16T13:16:52.593Z,31.53
2016-06-16T13:17:52.628Z,32.28
2016-06-16T13:18:52.662Z,33.34
2016-06-16T13:19:52.696Z,33.44
2016-06-16T13:20:52.715Z,31.9
2016-06-16T13:21:52.749Z,32.96
2016-06-16T13:22:52.783Z,32.76
2016-06-16T13:24:06.990Z,32.76
2016-06-16T13:24:52.695Z,34.12
2016-06-16T13:25:52.871Z,33.34
2016-06-16T13:26:52.905Z,32.08
2016-06-16T13:27:52.955Z,32.87
2016-06-16T13:28:52.865Z,32.86
2016-06-16T13:29:52.993Z,34.9
2016-06-16T13:30:53.026Z,33.54
2016-06-16T13:31:53.061Z,33.62
2016-06-16T13:32:52.939Z,32.94
2016-06-16T13:33:53.114Z,32.96
2016-06-16T13:35:53.183Z,34.72
2016-06-16T13:36:53.217Z,33.75
2016-06-16T13:37:53.251Z,32.68
2016-06-16T13:38:53.285Z,31.71
2016-06-16T13:39:53.305Z,32.99
2016-06-16T13:40:53.339Z,32.97
2016-06-16T13:41:53.217Z,33.67
2016-06-16T13:42:53.236Z,35.61
2016-06-16T13:43:53.426Z,33.96
2016-06-16T13:44:53.461Z,32.4
2016-06-16T13:45:53.479Z,34.16
2016-06-16T13:46:53.514Z,33.86
2016-06-16T13:48:53.582Z,32.78
2016-06-16T13:49:53.616Z,31.61
2016-06-16T13:50:53.635Z,33.07
2016-06-16T13:51:53.670Z,34.61
2016-06-16T13:52:53.704Z,33.75
2016-06-16T13:58:37.326Z,34.12
2016-06-16T13:59:37.345Z,35.19
2016-06-16T14:00:51.566Z,33.73
2016-06-16T14:01:37.257Z,33.93
2016-06-16T14:02:37.307Z,31.88
2016-06-16T14:03:37.467Z,33.07
2016-06-16T14:04:37.501Z,34.03